createdAt,value
2023-05-08T00:02:04.468Z,36.87
2023-05-08T00:04:33.159Z,36.34
2023-05-08T00:07:01.068Z,36.13
2023-05-08T00:09:28.985Z,36.27
2023-05-08T00:11:56.714Z,36.37
2023-05-08T00:14:24.564Z,36.39
2023-05-08T00:16:52.371Z,36.03
2023-05-08T00:19:20.217Z,36.68
2023-05-08T00:21:47.896Z,36.96
2023-05-08T00:24:15.531Z,36.19
2023-05-08T00:26:44.579Z,36.25
2023-05-08T00:29:12.576Z,37.21
2023-05-08T00:31:40.158Z,36.73
2023-05-08T00:34:07.860Z,36.41
2023-05-08T00:36:35.445Z,36.47
2023-05-08T00:39:03.016Z,36.47
2023-05-08T00:41:30.529Z,36.68
2023-05-08T00:43:58.019Z,36.71
2023-05-08T00:46:26.251Z,36.31
2023-05-08T00:48:54.191Z,36.73
2023-05-08T00:51:23.220Z,36.31
2023-05-08T00:53:51.122Z,36.32
2023-05-08T00:56:20.905Z,37.00
2023-05-08T00:58:48.812Z,36.53
2023-05-08T01:01:16.701Z,37.09
2023-05-08T01:03:45.486Z,36.93
2023-05-08T01:06:13.537Z,36.68
2023-05-08T01:08:41.995Z,37.09
2023-05-08T01:11:24.364Z,37.38
2023-05-08T01:14:25.370Z,36.86
2023-05-08T01:17:07.594Z,36.49
2023-05-08T01:19:49.140Z,37.15
2023-05-08T01:22:41.524Z,37.02
2023-05-08T01:25:59.484Z,37.29
2023-05-08T01:28:51.311Z,36.67
2023-05-08T01:31:32.580Z,37.17
2023-05-08T01:34:06.992Z,36.98
2023-05-08T01:36:52.194Z,37.03
2023-05-08T01:39:22.956Z,36.73
2023-05-08T01:42:03.465Z,36.64
2023-05-08T01:44:38.725Z,36.34
2023-05-08T01:47:09.160Z,35.18
2023-05-08T01:49:44.124Z,35.54
2023-05-08T01:52:36.481Z,34.98
2023-05-08T01:55:13.012Z,34.63
2023-05-08T01:57:47.311Z,35.13
2023-05-08T02:00:18.837Z,34.50
2023-05-08T02:02:48.848Z,34.89
2023-05-08T02:05:18.076Z,35.05
2023-05-08T02:07:50.236Z,34.69
2023-05-08T02:10:21.007Z,34.16
2023-05-08T02:12:50.318Z,33.62
2023-05-08T02:15:19.268Z,33.61
2023-05-08T02:17:49.896Z,33.45
2023-05-08T02:20:19.866Z,33.04
2023-05-08T02:22:51.758Z,32.86
2023-05-08T02:25:20.140Z,32.67
2023-05-08T02:27:49.833Z,32.29
2023-05-08T02:30:19.622Z,31.71
2023-05-08T02:32:49.173Z,31.51
2023-05-08T02:35:19.935Z,31.43
2023-05-08T02:37:53.104Z,31.00
2023-05-08T02:40:25.030Z,31.31
2023-05-08T02:42:53.073Z,31.20
2023-05-08T02:45:20.946Z,31.59
2023-05-08T02:48:04.609Z,29.96
2023-05-08T02:50:56.526Z,29.41
2023-05-08T02:53:36.337Z,28.52
2023-05-08T02:56:11.372Z,27.18
2023-05-08T02:58:51.131Z,27.31
2023-05-08T03:01:19.632Z,27.08
2023-05-08T03:03:53.623Z,25.01
2023-05-08T03:06:27.502Z,24.77
2023-05-08T03:09:00.209Z,23.70
2023-05-08T03:11:37.533Z,23.43
2023-05-08T03:14:10.206Z,22.54
2023-05-08T03:16:40.175Z,22.38
2023-05-08T03:19:16.293Z,22.48
2023-05-08T03:21:45.257Z,22.09
2023-05-08T03:24:17.912Z,22.57
2023-05-08T03:26:46.371Z,23.09
2023-05-08T03:29:16.032Z,22.95
2023-05-08T03:31:45.163Z,22.79
2023-05-08T03:34:14.250Z,22.90
2023-05-08T03:36:42.729Z,22.92
2023-05-08T03:39:10.351Z,22.98
2023-05-08T03:41:38.242Z,22.66
2023-05-08T03:44:08.090Z,22.73
2023-05-08T03:46:37.766Z,22.85
2023-05-08T03:49:06.528Z,22.63
2023-05-08T03:51:37.555Z,22.41
2023-05-08T03:54:05.190Z,21.78
2023-05-08T03:56:34.015Z,21.35
2023-05-08T03:59:15.698Z,20.70
2023-05-08T04:01:59.492Z,20.83
2023-05-08T04:04:40.644Z,20.65
2023-05-08T04:07:25.265Z,20.38
2023-05-08T04:10:03.716Z,19.15
2023-05-08T04:12:56.304Z,19.51
2023-05-08T04:15:29.718Z,17.67
2023-05-08T04:18:04.702Z,17.44
2023-05-08T04:20:34.095Z,16.83
2023-05-08T04:23:04.712Z,16.37
2023-05-08T04:25:36.836Z,15.94
2023-05-08T04:28:05.321Z,14.75
2023-05-08T04:30:34.291Z,14.28
2023-05-08T04:33:05.340Z,14.25
2023-05-08T04:35:34.837Z,13.90
2023-05-08T04:38:03.778Z,13.99
2023-05-08T04:40:31.848Z,13.97
2023-05-08T04:42:59.776Z,13.36
2023-05-08T04:45:27.988Z,12.62
2023-05-08T04:47:55.774Z,12.61
2023-05-08T04:50:24.149Z,12.11
2023-05-08T04:52:52.049Z,11.79
2023-05-08T04:55:20.372Z,11.68
2023-05-08T04:57:48.587Z,11.50
2023-05-08T05:00:17.447Z,11.39
2023-05-08T05:02:47.129Z,11.25
2023-05-08T05:05:15.102Z,10.78
2023-05-08T05:07:42.856Z,11.13
2023-05-08T05:10:12.210Z,10.88
2023-05-08T05:12:41.069Z,10.59
2023-05-08T05:15:09.341Z,10.73
2023-05-08T05:17:39.120Z,10.61
2023-05-08T05:20:09.276Z,10.19
2023-05-08T05:22:37.340Z,10.01
2023-05-08T05:25:06.033Z,10.25
2023-05-08T05:27:37.536Z,9.81
2023-05-08T05:30:07.772Z,9.95
2023-05-08T05:32:35.783Z,9.49
2023-05-08T05:35:03.708Z,9.60
2023-05-08T05:37:33.934Z,9.43
2023-05-08T05:40:01.590Z,9.49
2023-05-08T05:42:31.955Z,9.21
2023-05-08T05:44:59.917Z,9.34
2023-05-08T05:47:27.837Z,9.16
2023-05-08T05:49:56.046Z,9.53
2023-05-08T05:52:23.736Z,9.26
2023-05-08T05:54:51.364Z,9.21
2023-05-08T05:57:19.005Z,8.92
2023-05-08T05:59:46.878Z,9.34
2023-05-08T06:02:19.074Z,9.11
2023-05-08T06:04:47.646Z,9.45
2023-05-08T06:07:15.167Z,9.16
2023-05-08T06:09:42.729Z,9.00
2023-05-08T06:12:12.255Z,9.17
2023-05-08T06:14:40.239Z,8.98
2023-05-08T06:17:08.106Z,8.92
2023-05-08T06:19:35.991Z,8.70
2023-05-08T06:22:03.771Z,8.84
2023-05-08T06:24:31.593Z,9.18
2023-05-08T06:26:59.578Z,8.98
2023-05-08T06:29:27.173Z,8.52
2023-05-08T06:31:54.829Z,8.92
2023-05-08T06:34:22.379Z,8.76
2023-05-08T06:36:49.920Z,8.56
2023-05-08T06:39:17.592Z,8.61
2023-05-08T06:41:49.092Z,8.34
2023-05-08T06:44:25.233Z,8.52
2023-05-08T06:46:52.971Z,8.86
2023-05-08T06:49:20.658Z,8.51
2023-05-08T06:51:48.246Z,8.57
2023-05-08T06:54:15.826Z,8.82
2023-05-08T06:56:43.605Z,8.44
2023-05-08T06:59:11.308Z,8.57
2023-05-08T07:01:39.068Z,8.48
2023-05-08T07:04:06.816Z,8.74
2023-05-08T07:06:34.889Z,8.15
2023-05-08T07:09:03.089Z,8.38
2023-05-08T07:11:30.880Z,8.33
2023-05-08T07:13:58.465Z,8.33
2023-05-08T07:16:26.197Z,8.05
2023-05-08T07:18:53.890Z,8.47
2023-05-08T07:21:21.931Z,8.66
2023-05-08T07:23:51.929Z,8.72
2023-05-08T07:26:21.822Z,9.10
2023-05-08T07:28:51.104Z,9.17
2023-05-08T07:31:18.686Z,9.41
2023-05-08T07:33:47.333Z,9.99
2023-05-08T07:36:14.902Z,9.93
2023-05-08T07:38:42.612Z,10.37
2023-05-08T07:41:10.466Z,10.69
2023-05-08T07:43:38.463Z,11.10
2023-05-08T07:46:06.694Z,11.06
2023-05-08T07:48:34.158Z,11.26
2023-05-08T07:51:01.848Z,11.50
2023-05-08T07:53:29.377Z,11.67
2023-05-08T07:55:56.939Z,12.09
2023-05-08T07:58:24.706Z,11.99
2023-05-08T08:00:52.556Z,12.43
2023-05-08T08:03:20.462Z,12.52
2023-05-08T08:05:48.152Z,12.56
2023-05-08T08:08:15.667Z,12.74
2023-05-08T08:10:44.129Z,12.61
2023-05-08T08:13:11.808Z,12.77
2023-05-08T08:15:40.053Z,12.86
2023-05-08T08:18:08.115Z,13.21
2023-05-08T08:20:39.521Z,13.20
2023-05-08T08:23:07.260Z,13.62
2023-05-08T08:25:34.771Z,13.75
2023-05-08T08:28:02.422Z,13.99
2023-05-08T08:30:30.015Z,13.93
2023-05-08T08:32:57.680Z,14.11
2023-05-08T08:35:29.566Z,14.31
2023-05-08T08:37:57.680Z,14.51
2023-05-08T08:40:25.342Z,14.71
2023-05-08T08:42:53.023Z,14.56
2023-05-08T08:45:20.733Z,14.87
2023-05-08T08:47:48.948Z,15.13
2023-05-08T08:50:19.966Z,15.42
2023-05-08T08:53:01.223Z,15.18
2023-05-08T08:55:30.362Z,15.40
2023-05-08T08:58:18.450Z,15.18
2023-05-08T09:00:47.902Z,15.69
2023-05-08T09:03:16.162Z,16.06
2023-05-08T09:05:45.635Z,16.43
2023-05-08T09:08:13.551Z,16.29
2023-05-08T09:10:41.477Z,16.15
2023-05-08T09:13:09.267Z,16.16
2023-05-08T09:15:37.034Z,16.53
2023-05-08T09:18:05.022Z,16.88
2023-05-08T09:20:33.992Z,16.96
2023-05-08T09:23:05.128Z,17.61
2023-05-08T09:25:46.914Z,17.39
2023-05-08T09:28:21.813Z,17.25
2023-05-08T09:31:00.041Z,17.76
2023-05-08T09:33:30.100Z,18.01
2023-05-08T09:35:58.266Z,18.07
2023-05-08T09:38:40.378Z,17.97
2023-05-08T09:41:16.609Z,18.64
2023-05-08T09:43:45.366Z,18.34
2023-05-08T09:46:27.064Z,17.78
2023-05-08T09:48:59.249Z,18.46
2023-05-08T09:51:30.136Z,19.05
2023-05-08T09:53:59.405Z,19.05
2023-05-08T09:56:39.769Z,18.75
2023-05-08T09:59:34.096Z,19.14
2023-05-08T10:02:11.242Z,19.27
2023-05-08T10:04:39.020Z,18.63
2023-05-08T10:07:06.716Z,19.24
2023-05-08T10:09:46.854Z,18.93
2023-05-08T10:12:19.435Z,19.57
2023-05-08T10:14:47.215Z,19.00
2023-05-08T10:17:21.862Z,19.03
2023-05-08T10:19:55.968Z,19.44
2023-05-08T10:22:25.826Z,19.79
2023-05-08T10:25:01.956Z,19.98
2023-05-08T10:27:41.639Z,20.08
2023-05-08T10:30:11.508Z,19.94
2023-05-08T10:32:43.699Z,19.74
2023-05-08T10:35:12.397Z,19.64
2023-05-08T10:37:42.648Z,19.92
2023-05-08T10:40:11.606Z,20.21
2023-05-08T10:42:42.545Z,20.03
2023-05-08T10:45:11.080Z,19.90
2023-05-08T10:48:05.811Z,20.40
2023-05-08T10:50:45.373Z,20.53
2023-05-08T10:53:48.341Z,20.21
2023-05-08T10:56:15.985Z,20.98
2023-05-08T10:58:43.627Z,20.76
2023-05-08T11:01:12.903Z,21.39
2023-05-08T11:03:43.802Z,21.36
2023-05-08T11:06:12.166Z,20.57
2023-05-08T11:08:54.926Z,20.87
2023-05-08T11:11:34.425Z,20.72
2023-05-08T11:14:08.037Z,21.44
2023-05-08T11:16:54.037Z,21.02
2023-05-08T11:19:23.590Z,21.48
2023-05-08T11:22:23.992Z,21.46
2023-05-08T11:25:04.369Z,21.69
2023-05-08T11:27:41.258Z,21.29
2023-05-08T11:30:44.605Z,21.54
2023-05-08T11:33:16.207Z,21.43
2023-05-08T11:35:48.880Z,21.29
2023-05-08T11:38:29.567Z,21.65
2023-05-08T11:40:59.893Z,21.99
2023-05-08T11:43:33.633Z,21.18
2023-05-08T11:46:14.029Z,21.68
2023-05-08T11:48:41.648Z,21.73
2023-05-08T11:51:09.926Z,21.94
2023-05-08T11:53:38.419Z,21.42
2023-05-08T11:56:06.536Z,21.98
2023-05-08T11:58:34.182Z,21.70
2023-05-08T12:01:01.812Z,21.50
2023-05-08T12:03:29.871Z,22.12
2023-05-08T12:05:59.030Z,21.46
2023-05-08T12:08:27.126Z,21.73
2023-05-08T12:10:58.645Z,21.55
2023-05-08T12:13:30.673Z,21.77
2023-05-08T12:16:00.746Z,21.98
2023-05-08T12:18:30.819Z,21.76
2023-05-08T12:21:01.316Z,21.90
2023-05-08T12:23:30.230Z,22.06
2023-05-08T12:26:02.096Z,21.64
2023-05-08T12:28:32.554Z,21.92
2023-05-08T12:31:00.822Z,22.42
2023-05-08T12:33:29.225Z,22.32
2023-05-08T12:35:58.003Z,22.10
2023-05-08T12:38:27.306Z,21.97
2023-05-08T12:40:58.292Z,22.33
2023-05-08T12:43:33.551Z,22.21
2023-05-08T12:46:02.218Z,22.30
2023-05-08T12:48:30.702Z,22.77
2023-05-08T12:51:04.219Z,22.51
2023-05-08T12:53:33.799Z,22.85
2023-05-08T12:56:03.873Z,22.32
2023-05-08T12:58:34.255Z,22.80
2023-05-08T13:01:20.390Z,22.48
2023-05-08T13:04:01.506Z,22.68
2023-05-08T13:06:30.070Z,23.17
2023-05-08T13:08:57.933Z,22.61
2023-05-08T13:11:31.362Z,22.23
2023-05-08T13:13:59.278Z,22.44
2023-05-08T13:16:26.961Z,22.52
2023-05-08T13:18:54.560Z,22.46
2023-05-08T13:21:22.172Z,22.40
2023-05-08T13:23:49.773Z,22.16
2023-05-08T13:26:17.329Z,22.16
2023-05-08T13:28:44.911Z,22.41
2023-05-08T13:31:12.617Z,21.96
2023-05-08T13:33:40.179Z,21.97
2023-05-08T13:36:08.510Z,22.70
2023-05-08T13:38:36.167Z,22.12
2023-05-08T13:41:04.282Z,21.61
2023-05-08T13:43:31.793Z,22.45
2023-05-08T13:45:59.482Z,23.06
2023-05-08T13:48:27.020Z,23.39
2023-05-08T13:50:54.707Z,23.32
2023-05-08T13:53:22.312Z,22.82
2023-05-08T13:55:49.990Z,22.82
2023-05-08T13:58:17.596Z,23.15
2023-05-08T14:00:45.736Z,23.42
2023-05-08T14:03:13.317Z,23.04
2023-05-08T14:05:40.962Z,23.42
2023-05-08T14:08:08.626Z,23.64
2023-05-08T14:10:36.161Z,23.42
2023-05-08T14:13:04.265Z,23.55
2023-05-08T14:15:36.440Z,24.05
2023-05-08T14:18:06.142Z,22.69
2023-05-08T14:20:33.726Z,23.94
2023-05-08T14:23:01.340Z,23.85
2023-05-08T14:25:29.029Z,23.92
2023-05-08T14:27:56.569Z,23.33
2023-05-08T14:30:24.294Z,23.32
2023-05-08T14:32:51.891Z,23.16
2023-05-08T14:35:19.592Z,22.66
2023-05-08T14:37:47.205Z,23.25
2023-05-08T14:40:14.774Z,23.11
2023-05-08T14:42:42.420Z,22.86
2023-05-08T14:45:10.338Z,22.65
2023-05-08T14:47:39.067Z,23.22
2023-05-08T14:50:07.100Z,22.72
2023-05-08T14:52:34.616Z,22.93
2023-05-08T14:55:02.520Z,23.75
2023-05-08T14:57:31.873Z,23.86
2023-05-08T14:59:59.516Z,23.42
2023-05-08T15:02:27.143Z,23.64
2023-05-08T15:04:54.773Z,23.23
2023-05-08T15:07:22.287Z,23.79
2023-05-08T15:09:49.904Z,23.56
2023-05-08T15:12:17.530Z,23.37
2023-05-08T15:14:45.085Z,23.84
2023-05-08T15:17:12.690Z,23.32
2023-05-08T15:19:40.262Z,24.00
2023-05-08T15:22:07.849Z,24.15
2023-05-08T15:24:35.489Z,23.88
2023-05-08T15:27:03.132Z,23.46
2023-05-08T15:29:30.955Z,24.19
2023-05-08T15:31:58.957Z,24.29
2023-05-08T15:34:29.217Z,24.42
2023-05-08T15:37:00.198Z,24.64
2023-05-08T15:39:27.814Z,24.29
2023-05-08T15:41:55.395Z,24.18
2023-05-08T15:44:24.754Z,23.77
2023-05-08T15:46:52.621Z,24.27
2023-05-08T15:49:20.237Z,24.27
2023-05-08T15:51:47.797Z,24.86
2023-05-08T15:54:15.268Z,24.83
2023-05-08T15:56:42.857Z,24.96
2023-05-08T15:59:10.732Z,24.67
2023-05-08T16:01:39.097Z,25.10
2023-05-08T16:04:06.728Z,24.86
2023-05-08T16:06:34.655Z,24.98
2023-05-08T16:09:03.159Z,24.99
2023-05-08T16:11:32.201Z,24.98
2023-05-08T16:14:00.295Z,25.17
2023-05-08T16:16:28.364Z,25.59
2023-05-08T16:18:56.061Z,25.37
2023-05-08T16:21:23.632Z,25.59
2023-05-08T16:23:51.296Z,25.32
2023-05-08T16:26:18.853Z,25.46
2023-05-08T16:28:46.376Z,25.21
2023-05-08T16:31:14.296Z,25.98
2023-05-08T16:33:42.447Z,26.33
2023-05-08T16:36:10.369Z,26.27
2023-05-08T16:38:38.137Z,26.39
2023-05-08T16:41:07.074Z,25.84
2023-05-08T16:43:34.698Z,26.11
2023-05-08T16:46:02.245Z,25.91
2023-05-08T16:48:30.658Z,26.76
2023-05-08T16:50:58.324Z,26.22
2023-05-08T16:53:28.554Z,26.56
2023-05-08T16:55:56.150Z,26.31
2023-05-08T16:58:23.783Z,26.66
2023-05-08T17:00:51.303Z,27.00
2023-05-08T17:03:19.216Z,27.44
2023-05-08T17:05:46.814Z,27.31
2023-05-08T17:08:14.297Z,27.27
2023-05-08T17:10:42.149Z,27.07
2023-05-08T17:13:09.901Z,27.58
2023-05-08T17:15:37.587Z,27.34
2023-05-08T17:18:05.343Z,27.51
2023-05-08T17:20:40.931Z,27.16
2023-05-08T17:23:09.717Z,27.85
2023-05-08T17:25:37.501Z,26.98
2023-05-08T17:28:05.287Z,27.04
2023-05-08T17:30:33.061Z,27.36
2023-05-08T17:33:00.893Z,27.10
2023-05-08T17:35:28.690Z,27.21
2023-05-08T17:37:56.244Z,27.35
2023-05-08T17:40:23.981Z,27.77
2023-05-08T17:42:51.452Z,27.02
2023-05-08T17:45:19.221Z,27.52
2023-05-08T17:47:46.743Z,27.02
2023-05-08T17:50:14.394Z,27.30
2023-05-08T17:52:42.162Z,27.52
2023-05-08T17:55:10.411Z,27.92
2023-05-08T17:57:38.076Z,27.84
2023-05-08T18:00:09.414Z,27.60
2023-05-08T18:02:37.079Z,28.05
2023-05-08T18:05:04.985Z,27.77
2023-05-08T18:07:33.017Z,28.10
2023-05-08T18:10:00.605Z,27.61
2023-05-08T18:12:28.180Z,27.99
2023-05-08T18:14:55.816Z,28.49
2023-05-08T18:17:23.496Z,28.26
2023-05-08T18:19:51.222Z,28.41
2023-05-08T18:22:18.816Z,29.08
2023-05-08T18:24:46.563Z,29.12
2023-05-08T18:27:14.056Z,28.88
2023-05-08T18:29:41.677Z,29.17
2023-05-08T18:32:09.230Z,29.42
2023-05-08T18:34:36.967Z,29.56
2023-05-08T18:37:04.526Z,29.61
2023-05-08T18:39:32.153Z,29.99
2023-05-08T18:41:59.755Z,29.97
2023-05-08T18:44:27.425Z,29.90
2023-05-08T18:46:56.608Z,29.63
2023-05-08T18:49:24.189Z,30.09
2023-05-08T18:51:51.832Z,30.14
2023-05-08T18:54:19.997Z,30.26
2023-05-08T18:56:47.677Z,30.18
2023-05-08T18:59:15.418Z,30.57
2023-05-08T19:01:43.027Z,30.16
2023-05-08T19:04:10.655Z,30.41
2023-05-08T19:06:38.354Z,30.72
2023-05-08T19:09:06.008Z,30.48
2023-05-08T19:11:33.860Z,30.98
2023-05-08T19:14:01.576Z,30.64
2023-05-08T19:16:29.421Z,30.72
2023-05-08T19:18:57.152Z,30.72
2023-05-08T19:21:25.069Z,31.08
2023-05-08T19:23:52.927Z,30.75
2023-05-08T19:26:20.487Z,31.24
2023-05-08T19:28:48.064Z,31.33
2023-05-08T19:31:15.887Z,30.54
2023-05-08T19:33:43.504Z,31.08
2023-05-08T19:36:11.089Z,30.53
2023-05-08T19:38:40.409Z,30.55
2023-05-08T19:41:08.280Z,30.79
2023-05-08T19:43:36.702Z,30.43
2023-05-08T19:46:04.300Z,30.43
2023-05-08T19:48:31.973Z,30.26
2023-05-08T19:51:06.384Z,30.43
2023-05-08T19:53:33.967Z,30.30
2023-05-08T19:56:01.802Z,30.59
2023-05-08T19:58:29.479Z,30.18
2023-05-08T20:00:57.149Z,30.19
2023-05-08T20:03:25.218Z,30.48
2023-05-08T20:05:53.342Z,30.55
2023-05-08T20:08:21.320Z,30.33
2023-05-08T20:10:49.369Z,31.04
2023-05-08T20:13:17.854Z,31.19
2023-05-08T20:15:45.914Z,30.43
2023-05-08T20:18:13.638Z,30.92
2023-05-08T20:20:41.415Z,30.67
2023-05-08T20:23:08.974Z,31.00
2023-05-08T20:25:36.690Z,30.86
2023-05-08T20:28:04.232Z,30.84
2023-05-08T20:30:31.814Z,31.14
2023-05-08T20:33:05.175Z,31.23
2023-05-08T20:35:33.355Z,31.19
2023-05-08T20:38:01.072Z,31.27
2023-05-08T20:40:28.954Z,30.79
2023-05-08T20:42:56.542Z,31.16
2023-05-08T20:45:24.358Z,31.35
2023-05-08T20:47:52.013Z,31.42
2023-05-08T20:50:19.651Z,31.59
2023-05-08T20:52:47.231Z,31.84
2023-05-08T20:55:15.024Z,31.62
2023-05-08T20:57:42.822Z,31.49
2023-05-08T21:00:10.893Z,31.91
2023-05-08T21:02:42.989Z,31.54
2023-05-08T21:05:11.570Z,31.49
2023-05-08T21:07:39.483Z,31.59
2023-05-08T21:10:07.917Z,32.04
2023-05-08T21:12:35.917Z,32.10
2023-05-08T21:15:03.520Z,31.48
2023-05-08T21:17:32.955Z,31.85
2023-05-08T21:20:00.694Z,31.90
2023-05-08T21:22:28.264Z,31.50
2023-05-08T21:24:55.793Z,31.64
2023-05-08T21:27:23.506Z,31.81
2023-05-08T21:29:51.109Z,32.15
2023-05-08T21:32:18.607Z,32.10
2023-05-08T21:34:46.203Z,32.24
2023-05-08T21:37:13.920Z,32.34
2023-05-08T21:39:42.118Z,32.31
2023-05-08T21:42:09.799Z,32.40
2023-05-08T21:44:37.356Z,32.78
2023-05-08T21:47:04.919Z,32.56
2023-05-08T21:49:32.652Z,32.43
2023-05-08T21:52:00.315Z,32.73
2023-05-08T21:54:27.847Z,32.60
2023-05-08T21:56:55.601Z,33.07
2023-05-08T21:59:23.196Z,32.63
2023-05-08T22:01:51.564Z,32.75
2023-05-08T22:04:19.101Z,32.66
2023-05-08T22:06:46.717Z,32.70
2023-05-08T22:09:14.273Z,33.06
2023-05-08T22:11:41.766Z,33.39
2023-05-08T22:14:09.317Z,33.20
2023-05-08T22:16:37.068Z,33.04
2023-05-08T22:19:04.609Z,32.79
2023-05-08T22:21:32.380Z,33.01
2023-05-08T22:24:00.265Z,33.41
2023-05-08T22:26:29.024Z,33.36
2023-05-08T22:28:56.652Z,33.57
2023-05-08T22:31:24.371Z,33.20
2023-05-08T22:33:52.211Z,33.24
2023-05-08T22:36:19.983Z,33.49
2023-05-08T22:38:47.453Z,33.50
2023-05-08T22:41:15.152Z,33.42
2023-05-08T22:43:42.941Z,33.76
2023-05-08T22:46:10.754Z,33.19
2023-05-08T22:48:38.503Z,33.44
2023-05-08T22:51:07.805Z,33.34
2023-05-08T22:53:35.281Z,33.48
2023-05-08T22:56:02.840Z,33.59
2023-05-08T22:58:30.390Z,33.43
2023-05-08T23:00:59.876Z,32.92
2023-05-08T23:03:27.769Z,33.01
2023-05-08T23:05:55.411Z,33.18
2023-05-08T23:08:23.039Z,33.29
2023-05-08T23:10:50.739Z,33.52
2023-05-08T23:13:18.325Z,33.06
2023-05-08T23:15:45.925Z,33.53
2023-05-08T23:18:13.516Z,33.56
2023-05-08T23:20:41.104Z,33.61
2023-05-08T23:23:08.733Z,33.41
2023-05-08T23:25:36.360Z,33.03
2023-05-08T23:28:03.909Z,33.48
2023-05-08T23:30:31.471Z,33.33
2023-05-08T23:32:59.162Z,33.75
2023-05-08T23:35:26.880Z,33.59
2023-05-08T23:37:54.401Z,33.77
2023-05-08T23:40:22.203Z,33.57
2023-05-08T23:42:49.717Z,33.84
2023-05-08T23:45:17.437Z,33.69
2023-05-08T23:47:45.111Z,34.18
2023-05-08T23:50:13.122Z,33.71
2023-05-08T23:52:42.275Z,33.86
2023-05-08T23:55:10.277Z,33.40
2023-05-08T23:57:37.870Z,33.62
